sensor_id;sensor_type;location;lat;lon;timestamp;P1;durP1;ratioP1;P2;durP2;ratioP2
16401;SDS011;8310;44.626;11.176;2022-08-19T00:00:38;4.68;;;3.05;;
16401;SDS011;8310;44.626;11.176;2022-08-19T00:03:06;5.32;;;2.70;;
16401;SDS011;8310;44.626;11.176;2022-08-19T00:05:35;6.63;;;3.40;;
16401;SDS011;8310;44.626;11.176;2022-08-19T00:08:03;3.88;;;3.10;;
16401;SDS011;8310;44.626;11.176;2022-08-19T00:10:31;5.25;;;4.13;;
16401;SDS011;8310;44.626;11.176;2022-08-19T00:12:59;5.20;;;2.88;;
16401;SDS011;8310;44.626;11.176;2022-08-19T00:15:27;4.43;;;2.60;;
16401;SDS011;8310;44.626;11.176;2022-08-19T00:17:55;6.32;;;2.72;;
16401;SDS011;8310;44.626;11.176;2022-08-19T00:20:23;7.80;;;3.00;;
16401;SDS011;8310;44.626;11.176;2022-08-19T00:22:52;6.13;;;3.42;;
16401;SDS011;8310;44.626;11.176;2022-08-19T00:25:20;4.15;;;2.17;;
16401;SDS011;8310;44.626;11.176;2022-08-19T00:27:48;4.50;;;2.40;;
16401;SDS011;8310;44.626;11.176;2022-08-19T00:30:15;4.90;;;2.63;;
16401;SDS011;8310;44.626;11.176;2022-08-19T00:32:44;3.38;;;2.30;;
16401;SDS011;8310;44.626;11.176;2022-08-19T00:35:12;4.28;;;2.20;;
16401;SDS011;8310;44.626;11.176;2022-08-19T00:37:43;5.45;;;2.92;;
16401;SDS011;8310;44.626;11.176;2022-08-19T00:40:13;4.45;;;2.35;;
16401;SDS011;8310;44.626;11.176;2022-08-19T00:42:42;4.55;;;2.90;;
16401;SDS011;8310;44.626;11.176;2022-08-19T00:45:11;3.63;;;2.40;;
16401;SDS011;8310;44.626;11.176;2022-08-19T00:47:40;2.47;;;2.28;;
16401;SDS011;8310;44.626;11.176;2022-08-19T00:50:09;3.42;;;2.58;;
16401;SDS011;8310;44.626;11.176;2022-08-19T00:52:39;3.38;;;2.70;;
16401;SDS011;8310;44.626;11.176;2022-08-19T00:55:10;6.05;;;2.60;;
16401;SDS011;8310;44.626;11.176;2022-08-19T00:57:44;4.75;;;2.95;;
16401;SDS011;8310;44.626;11.176;2022-08-19T01:00:16;7.47;;;3.50;;
16401;SDS011;8310;44.626;11.176;2022-08-19T01:02:45;3.75;;;3.40;;
16401;SDS011;8310;44.626;11.176;2022-08-19T01:05:14;4.70;;;3.90;;
16401;SDS011;8310;44.626;11.176;2022-08-19T01:07:45;4.80;;;3.80;;
16401;SDS011;8310;44.626;11.176;2022-08-19T01:10:16;5.07;;;3.90;;
16401;SDS011;8310;44.626;11.176;2022-08-19T01:12:46;5.10;;;4.68;;
16401;SDS011;8310;44.626;11.176;2022-08-19T01:15:21;4.80;;;4.40;;
16401;SDS011;8310;44.626;11.176;2022-08-19T01:17:52;4.20;;;3.78;;
16401;SDS011;8310;44.626;11.176;2022-08-19T01:20:22;4.40;;;3.40;;
16401;SDS011;8310;44.626;11.176;2022-08-19T01:22:53;6.50;;;3.30;;
16401;SDS011;8310;44.626;11.176;2022-08-19T01:25:22;3.47;;;3.17;;
16401;SDS011;8310;44.626;11.176;2022-08-19T01:27:53;3.92;;;2.67;;
16401;SDS011;8310;44.626;11.176;2022-08-19T01:30:22;3.03;;;2.72;;
16401;SDS011;8310;44.626;11.176;2022-08-19T01:32:56;2.85;;;2.67;;
16401;SDS011;8310;44.626;11.176;2022-08-19T01:35:26;3.47;;;2.75;;
16401;SDS011;8310;44.626;11.176;2022-08-19T01:37:57;3.28;;;2.67;;
16401;SDS011;8310;44.626;11.176;2022-08-19T01:40:28;4.68;;;2.70;;
16401;SDS011;8310;44.626;11.176;2022-08-19T01:42:56;2.60;;;2.05;;
16401;SDS011;8310;44.626;11.176;2022-08-19T01:45:27;2.33;;;2.13;;
16401;SDS011;8310;44.626;11.176;2022-08-19T01:47:57;5.72;;;2.40;;
16401;SDS011;8310;44.626;11.176;2022-08-19T01:50:25;4.95;;;2.78;;
16401;SDS011;8310;44.626;11.176;2022-08-19T01:52:53;4.05;;;2.28;;
16401;SDS011;8310;44.626;11.176;2022-08-19T01:55:22;2.72;;;2.17;;
16401;SDS011;8310;44.626;11.176;2022-08-19T01:57:51;5.15;;;2.53;;
16401;SDS011;8310;44.626;11.176;2022-08-19T02:00:23;4.85;;;2.55;;
16401;SDS011;8310;44.626;11.176;2022-08-19T02:02:54;4.85;;;2.13;;
16401;SDS011;8310;44.626;11.176;2022-08-19T02:05:21;5.25;;;2.45;;
16401;SDS011;8310;44.626;11.176;2022-08-19T02:07:49;3.42;;;2.20;;
16401;SDS011;8310;44.626;11.176;2022-08-19T02:10:17;2.90;;;1.80;;
16401;SDS011;8310;44.626;11.176;2022-08-19T02:12:48;3.33;;;2.15;;
16401;SDS011;8310;44.626;11.176;2022-08-19T02:15:16;3.88;;;1.95;;
16401;SDS011;8310;44.626;11.176;2022-08-19T02:17:45;3.33;;;2.05;;
16401;SDS011;8310;44.626;11.176;2022-08-19T02:20:15;3.60;;;2.10;;
16401;SDS011;8310;44.626;11.176;2022-08-19T02:22:43;3.63;;;2.72;;
16401;SDS011;8310;44.626;11.176;2022-08-19T02:25:11;4.07;;;2.20;;
16401;SDS011;8310;44.626;11.176;2022-08-19T02:27:40;2.38;;;1.73;;
16401;SDS011;8310;44.626;11.176;2022-08-19T02:30:12;3.70;;;1.70;;
16401;SDS011;8310;44.626;11.176;2022-08-19T02:32:41;4.72;;;2.08;;
16401;SDS011;8310;44.626;11.176;2022-08-19T02:35:10;2.40;;;2.20;;
16401;SDS011;8310;44.626;11.176;2022-08-19T02:37:40;4.68;;;2.03;;
16401;SDS011;8310;44.626;11.176;2022-08-19T02:40:25;3.50;;;2.17;;
16401;SDS011;8310;44.626;11.176;2022-08-19T02:42:52;3.10;;;2.10;;
16401;SDS011;8310;44.626;11.176;2022-08-19T02:45:22;4.05;;;2.00;;
16401;SDS011;8310;44.626;11.176;2022-08-19T02:47:49;5.35;;;2.13;;
16401;SDS011;8310;44.626;11.176;2022-08-19T02:50:17;2.80;;;1.88;;
16401;SDS011;8310;44.626;11.176;2022-08-19T02:52:45;4.30;;;2.33;;
16401;SDS011;8310;44.626;11.176;2022-08-19T02:55:17;5.68;;;2.33;;
16401;SDS011;8310;44.626;11.176;2022-08-19T02:57:45;3.85;;;2.20;;
16401;SDS011;8310;44.626;11.176;2022-08-19T03:00:13;3.63;;;2.58;;
16401;SDS011;8310;44.626;11.176;2022-08-19T03:02:43;2.35;;;2.05;;
16401;SDS011;8310;44.626;11.176;2022-08-19T03:05:11;3.97;;;2.05;;
16401;SDS011;8310;44.626;11.176;2022-08-19T03:07:39;4.25;;;2.22;;
16401;SDS011;8310;44.626;11.176;2022-08-19T03:10:07;3.03;;;2.20;;
16401;SDS011;8310;44.626;11.176;2022-08-19T03:12:36;3.42;;;1.80;;
16401;SDS011;8310;44.626;11.176;2022-08-19T03:15:04;4.82;;;2.50;;
16401;SDS011;8310;44.626;11.176;2022-08-19T03:17:34;4.72;;;2.50;;
16401;SDS011;8310;44.626;11.176;2022-08-19T03:20:04;6.03;;;2.40;;
16401;SDS011;8310;44.626;11.176;2022-08-19T03:22:32;3.30;;;2.00;;
16401;SDS011;8310;44.626;11.176;2022-08-19T03:25:00;2.92;;;2.25;;
16401;SDS011;8310;44.626;11.176;2022-08-19T03:27:27;4.38;;;2.35;;
16401;SDS011;8310;44.626;11.176;2022-08-19T03:29:54;3.47;;;2.88;;
16401;SDS011;8310;44.626;11.176;2022-08-19T03:32:23;4.15;;;2.83;;
16401;SDS011;8310;44.626;11.176;2022-08-19T03:34:50;2.85;;;2.15;;
16401;SDS011;8310;44.626;11.176;2022-08-19T03:37:19;3.50;;;2.53;;
16401;SDS011;8310;44.626;11.176;2022-08-19T03:39:47;3.92;;;2.45;;
16401;SDS011;8310;44.626;11.176;2022-08-19T03:42:15;2.92;;;2.30;;
16401;SDS011;8310;44.626;11.176;2022-08-19T03:44:42;4.65;;;3.05;;
16401;SDS011;8310;44.626;11.176;2022-08-19T03:47:10;6.22;;;2.97;;
16401;SDS011;8310;44.626;11.176;2022-08-19T03:49:41;5.15;;;3.10;;
16401;SDS011;8310;44.626;11.176;2022-08-19T03:52:09;5.65;;;3.60;;
16401;SDS011;8310;44.626;11.176;2022-08-19T03:54:38;6.40;;;3.28;;
16401;SDS011;8310;44.626;11.176;2022-08-19T03:57:05;3.55;;;2.70;;
16401;SDS011;8310;44.626;11.176;2022-08-19T03:59:34;3.88;;;2.72;;
16401;SDS011;8310;44.626;11.176;2022-08-19T04:02:05;3.38;;;2.88;;
16401;SDS011;8310;44.626;11.176;2022-08-19T04:04:34;5.38;;;2.90;;
16401;SDS011;8310;44.626;11.176;2022-08-19T04:07:02;5.00;;;2.70;;
16401;SDS011;8310;44.626;11.176;2022-08-19T04:09:30;7.38;;;3.97;;
16401;SDS011;8310;44.626;11.176;2022-08-19T04:11:59;4.20;;;3.38;;
16401;SDS011;8310;44.626;11.176;2022-08-19T04:14:27;5.35;;;3.30;;
16401;SDS011;8310;44.626;11.176;2022-08-19T04:16:56;5.07;;;3.17;;
16401;SDS011;8310;44.626;11.176;2022-08-19T04:19:24;5.95;;;3.40;;
16401;SDS011;8310;44.626;11.176;2022-08-19T04:21:53;7.60;;;3.70;;
16401;SDS011;8310;44.626;11.176;2022-08-19T04:24:21;6.93;;;3.40;;
16401;SDS011;8310;44.626;11.176;2022-08-19T04:26:49;7.90;;;4.03;;
16401;SDS011;8310;44.626;11.176;2022-08-19T04:29:20;5.70;;;3.55;;
16401;SDS011;8310;44.626;11.176;2022-08-19T04:31:53;5.18;;;3.20;;
16401;SDS011;8310;44.626;11.176;2022-08-19T04:34:22;6.63;;;3.33;;
16401;SDS011;8310;44.626;11.176;2022-08-19T04:36:53;4.18;;;2.85;;
16401;SDS011;8310;44.626;11.176;2022-08-19T04:39:22;4.60;;;3.35;;
16401;SDS011;8310;44.626;11.176;2022-08-19T04:42:11;5.32;;;3.47;;
16401;SDS011;8310;44.626;11.176;2022-08-19T04:44:57;5.13;;;2.85;;
16401;SDS011;8310;44.626;11.176;2022-08-19T04:47:25;5.32;;;3.00;;
16401;SDS011;8310;44.626;11.176;2022-08-19T04:49:53;5.43;;;3.25;;
16401;SDS011;8310;44.626;11.176;2022-08-19T04:52:20;6.40;;;3.22;;
16401;SDS011;8310;44.626;11.176;2022-08-19T04:54:48;4.63;;;3.30;;
16401;SDS011;8310;44.626;11.176;2022-08-19T04:57:16;7.38;;;4.05;;
16401;SDS011;8310;44.626;11.176;2022-08-19T04:59:43;5.97;;;3.40;;
16401;SDS011;8310;44.626;11.176;2022-08-19T05:02:12;3.67;;;3.28;;
16401;SDS011;8310;44.626;11.176;2022-08-19T05:04:40;6.47;;;3.78;;
16401;SDS011;8310;44.626;11.176;2022-08-19T05:07:07;4.38;;;3.58;;
16401;SDS011;8310;44.626;11.176;2022-08-19T05:09:35;4.57;;;3.80;;
16401;SDS011;8310;44.626;11.176;2022-08-19T05:12:02;4.10;;;3.80;;
16401;SDS011;8310;44.626;11.176;2022-08-19T05:14:32;4.55;;;3.15;;
16401;SDS011;8310;44.626;11.176;2022-08-19T05:17:00;10.68;;;3.83;;
16401;SDS011;8310;44.626;11.176;2022-08-19T05:19:29;8.13;;;4.03;;
16401;SDS011;8310;44.626;11.176;2022-08-19T05:22:13;5.97;;;3.42;;
16401;SDS011;8310;44.626;11.176;2022-08-19T05:25:07;8.18;;;3.60;;
16401;SDS011;8310;44.626;11.176;2022-08-19T05:27:37;7.18;;;3.75;;
16401;SDS011;8310;44.626;11.176;2022-08-19T05:30:06;7.60;;;4.53;;
16401;SDS011;8310;44.626;11.176;2022-08-19T05:32:34;7.75;;;4.07;;
16401;SDS011;8310;44.626;11.176;2022-08-19T05:35:04;5.35;;;3.13;;
16401;SDS011;8310;44.626;11.176;2022-08-19T05:37:32;5.05;;;3.10;;
16401;SDS011;8310;44.626;11.176;2022-08-19T05:40:00;5.72;;;2.95;;
16401;SDS011;8310;44.626;11.176;2022-08-19T05:54:45;3.83;;;2.15;;
16401;SDS011;8310;44.626;11.176;2022-08-19T05:57:16;5.10;;;2.20;;
16401;SDS011;8310;44.626;11.176;2022-08-19T05:59:43;4.75;;;2.67;;
16401;SDS011;8310;44.626;11.176;2022-08-19T06:02:16;5.32;;;2.50;;
16401;SDS011;8310;44.626;11.176;2022-08-19T06:04:44;4.85;;;2.10;;
16401;SDS011;8310;44.626;11.176;2022-08-19T06:07:12;2.90;;;2.38;;
16401;SDS011;8310;44.626;11.176;2022-08-19T06:09:40;2.33;;;2.13;;
16401;SDS011;8310;44.626;11.176;2022-08-19T06:12:09;4.10;;;2.35;;
16401;SDS011;8310;44.626;11.176;2022-08-19T06:14:37;3.60;;;2.60;;
16401;SDS011;8310;44.626;11.176;2022-08-19T06:17:06;4.68;;;2.92;;
16401;SDS011;8310;44.626;11.176;2022-08-19T06:19:34;3.83;;;2.85;;
16401;SDS011;8310;44.626;11.176;2022-08-19T06:22:01;3.90;;;3.05;;
16401;SDS011;8310;44.626;11.176;2022-08-19T06:24:29;5.85;;;2.88;;
16401;SDS011;8310;44.626;11.176;2022-08-19T06:26:57;3.20;;;2.63;;
16401;SDS011;8310;44.626;11.176;2022-08-19T06:29:27;5.72;;;3.65;;
16401;SDS011;8310;44.626;11.176;2022-08-19T06:31:56;3.88;;;2.25;;
16401;SDS011;8310;44.626;11.176;2022-08-19T06:34:26;3.90;;;2.08;;
16401;SDS011;8310;44.626;11.176;2022-08-19T06:36:57;2.38;;;2.00;;
16401;SDS011;8310;44.626;11.176;2022-08-19T06:39:27;2.67;;;1.65;;
16401;SDS011;8310;44.626;11.176;2022-08-19T06:41:59;3.15;;;2.47;;
16401;SDS011;8310;44.626;11.176;2022-08-19T06:44:30;3.22;;;1.90;;
16401;SDS011;8310;44.626;11.176;2022-08-19T06:47:01;2.13;;;1.90;;
16401;SDS011;8310;44.626;11.176;2022-08-19T06:49:29;2.78;;;1.88;;
16401;SDS011;8310;44.626;11.176;2022-08-19T06:51:57;3.92;;;1.70;;
16401;SDS011;8310;44.626;11.176;2022-08-19T06:54:25;4.22;;;1.60;;
16401;SDS011;8310;44.626;11.176;2022-08-19T06:56:54;2.08;;;1.45;;
16401;SDS011;8310;44.626;11.176;2022-08-19T06:59:23;2.78;;;1.92;;
16401;SDS011;8310;44.626;11.176;2022-08-19T07:01:54;1.70;;;1.42;;
16401;SDS011;8310;44.626;11.176;2022-08-19T07:04:24;4.15;;;1.95;;
16401;SDS011;8310;44.626;11.176;2022-08-19T07:06:58;1.83;;;1.73;;
16401;SDS011;8310;44.626;11.176;2022-08-19T07:09:27;2.47;;;1.60;;
16401;SDS011;8310;44.626;11.176;2022-08-19T07:11:55;2.33;;;2.05;;
16401;SDS011;8310;44.626;11.176;2022-08-19T07:14:24;2.35;;;1.45;;
16401;SDS011;8310;44.626;11.176;2022-08-19T07:16:54;1.30;;;1.30;;
16401;SDS011;8310;44.626;11.176;2022-08-19T07:19:24;1.40;;;1.30;;
16401;SDS011;8310;44.626;11.176;2022-08-19T07:21:53;1.60;;;1.45;;
16401;SDS011;8310;44.626;11.176;2022-08-19T07:24:21;1.92;;;1.10;;
16401;SDS011;8310;44.626;11.176;2022-08-19T07:26:52;1.45;;;1.30;;
16401;SDS011;8310;44.626;11.176;2022-08-19T07:29:22;2.20;;;1.10;;
16401;SDS011;8310;44.626;11.176;2022-08-19T07:31:50;1.33;;;1.20;;
16401;SDS011;8310;44.626;11.176;2022-08-19T07:34:19;1.58;;;1.20;;
16401;SDS011;8310;44.626;11.176;2022-08-19T07:36:46;1.10;;;1.00;;
16401;SDS011;8310;44.626;11.176;2022-08-19T07:39:15;1.13;;;1.00;;
16401;SDS011;8310;44.626;11.176;2022-08-19T07:41:45;1.10;;;1.10;;
16401;SDS011;8310;44.626;11.176;2022-08-19T07:44:13;0.90;;;0.90;;
16401;SDS011;8310;44.626;11.176;2022-08-19T07:46:43;1.10;;;0.80;;
16401;SDS011;8310;44.626;11.176;2022-08-19T07:49:17;2.13;;;1.48;;
16401;SDS011;8310;44.626;11.176;2022-08-19T07:51:47;0.80;;;0.80;;
16401;SDS011;8310;44.626;11.176;2022-08-19T07:54:16;1.45;;;0.90;;
16401;SDS011;8310;44.626;11.176;2022-08-19T07:56:44;0.85;;;0.85;;
16401;SDS011;8310;44.626;11.176;2022-08-19T07:59:12;1.63;;;1.02;;
16401;SDS011;8310;44.626;11.176;2022-08-19T08:01:39;1.17;;;1.10;;
16401;SDS011;8310;44.626;11.176;2022-08-19T08:04:06;3.53;;;1.15;;
16401;SDS011;8310;44.626;11.176;2022-08-19T08:06:53;1.58;;;1.20;;
16401;SDS011;8310;44.626;11.176;2022-08-19T08:09:39;1.58;;;1.10;;
16401;SDS011;8310;44.626;11.176;2022-08-19T08:12:09;1.70;;;1.23;;
16401;SDS011;8310;44.626;11.176;2022-08-19T08:14:41;1.55;;;1.10;;
16401;SDS011;8310;44.626;11.176;2022-08-19T08:17:11;1.35;;;1.25;;
16401;SDS011;8310;44.626;11.176;2022-08-19T08:19:39;1.20;;;1.20;;
16401;SDS011;8310;44.626;11.176;2022-08-19T08:22:09;1.38;;;1.20;;
16401;SDS011;8310;44.626;11.176;2022-08-19T08:25:00;2.75;;;1.30;;
16401;SDS011;8310;44.626;11.176;2022-08-19T08:27:29;1.30;;;1.30;;
16401;SDS011;8310;44.626;11.176;2022-08-19T08:29:56;1.35;;;1.30;;
16401;SDS011;8310;44.626;11.176;2022-08-19T08:32:24;1.70;;;1.60;;
16401;SDS011;8310;44.626;11.176;2022-08-19T08:34:52;1.17;;;1.10;;
16401;SDS011;8310;44.626;11.176;2022-08-19T08:37:21;1.70;;;1.45;;
16401;SDS011;8310;44.626;11.176;2022-08-19T08:39:48;1.40;;;1.30;;
16401;SDS011;8310;44.626;11.176;2022-08-19T08:42:18;1.15;;;1.15;;
16401;SDS011;8310;44.626;11.176;2022-08-19T08:44:52;2.08;;;1.55;;
16401;SDS011;8310;44.626;11.176;2022-08-19T08:47:24;1.85;;;1.75;;
16401;SDS011;8310;44.626;11.176;2022-08-19T08:49:55;1.65;;;1.55;;
16401;SDS011;8310;44.626;11.176;2022-08-19T08:52:28;2.03;;;1.40;;
16401;SDS011;8310;44.626;11.176;2022-08-19T08:55:04;1.95;;;1.65;;
16401;SDS011;8310;44.626;11.176;2022-08-19T08:57:36;1.70;;;1.60;;
16401;SDS011;8310;44.626;11.176;2022-08-19T09:00:11;2.00;;;1.80;;
16401;SDS011;8310;44.626;11.176;2022-08-19T09:02:42;2.15;;;2.05;;
16401;SDS011;8310;44.626;11.176;2022-08-19T09:05:09;1.60;;;1.50;;
16401;SDS011;8310;44.626;11.176;2022-08-19T09:07:42;1.85;;;1.75;;
16401;SDS011;8310;44.626;11.176;2022-08-19T09:10:17;2.60;;;1.67;;
16401;SDS011;8310;44.626;11.176;2022-08-19T09:12:52;3.47;;;1.83;;
16401;SDS011;8310;44.626;11.176;2022-08-19T09:15:28;1.70;;;1.60;;
16401;SDS011;8310;44.626;11.176;2022-08-19T09:18:01;1.75;;;1.58;;
16401;SDS011;8310;44.626;11.176;2022-08-19T09:20:31;2.05;;;1.42;;
16401;SDS011;8310;44.626;11.176;2022-08-19T09:23:00;3.05;;;1.38;;
16401;SDS011;8310;44.626;11.176;2022-08-19T09:25:27;1.60;;;1.50;;
16401;SDS011;8310;44.626;11.176;2022-08-19T09:27:55;2.35;;;1.88;;
16401;SDS011;8310;44.626;11.176;2022-08-19T09:30:27;2.10;;;1.67;;
16401;SDS011;8310;44.626;11.176;2022-08-19T09:32:56;1.88;;;1.40;;
16401;SDS011;8310;44.626;11.176;2022-08-19T09:35:26;1.95;;;1.48;;
16401;SDS011;8310;44.626;11.176;2022-08-19T09:37:55;1.98;;;1.38;;
16401;SDS011;8310;44.626;11.176;2022-08-19T09:40:24;1.75;;;1.45;;
16401;SDS011;8310;44.626;11.176;2022-08-19T09:42:52;1.65;;;1.40;;
16401;SDS011;8310;44.626;11.176;2022-08-19T09:45:20;1.30;;;1.20;;
16401;SDS011;8310;44.626;11.176;2022-08-19T09:47:49;2.08;;;1.50;;
16401;SDS011;8310;44.626;11.176;2022-08-19T09:50:17;2.38;;;1.40;;
16401;SDS011;8310;44.626;11.176;2022-08-19T09:52:45;2.53;;;1.30;;
16401;SDS011;8310;44.626;11.176;2022-08-19T09:55:13;1.95;;;1.10;;
16401;SDS011;8310;44.626;11.176;2022-08-19T09:57:43;1.45;;;1.35;;
16401;SDS011;8310;44.626;11.176;2022-08-19T10:00:11;1.20;;;1.10;;
16401;SDS011;8310;44.626;11.176;2022-08-19T10:02:40;1.60;;;1.50;;
16401;SDS011;8310;44.626;11.176;2022-08-19T10:05:08;1.27;;;1.15;;
16401;SDS011;8310;44.626;11.176;2022-08-19T10:07:53;1.23;;;1.10;;
16401;SDS011;8310;44.626;11.176;2022-08-19T10:10:21;1.17;;;1.13;;
16401;SDS011;8310;44.626;11.176;2022-08-19T10:12:50;1.60;;;1.27;;
16401;SDS011;8310;44.626;11.176;2022-08-19T10:15:21;1.40;;;1.35;;
16401;SDS011;8310;44.626;11.176;2022-08-19T10:17:48;1.20;;;1.20;;
16401;SDS011;8310;44.626;11.176;2022-08-19T10:20:16;1.50;;;1.25;;
16401;SDS011;8310;44.626;11.176;2022-08-19T10:22:43;1.42;;;1.33;;
16401;SDS011;8310;44.626;11.176;2022-08-19T10:25:11;1.40;;;1.30;;
16401;SDS011;8310;44.626;11.176;2022-08-19T10:27:39;1.80;;;1.20;;
16401;SDS011;8310;44.626;11.176;2022-08-19T10:30:09;1.10;;;1.05;;
16401;SDS011;8310;44.626;11.176;2022-08-19T10:32:38;1.10;;;1.02;;
16401;SDS011;8310;44.626;11.176;2022-08-19T10:35:05;1.15;;;0.93;;
16401;SDS011;8310;44.626;11.176;2022-08-19T10:37:33;1.38;;;1.10;;
16401;SDS011;8310;44.626;11.176;2022-08-19T10:40:03;1.58;;;1.40;;
16401;SDS011;8310;44.626;11.176;2022-08-19T10:42:33;1.20;;;1.10;;
16401;SDS011;8310;44.626;11.176;2022-08-19T10:45:01;0.95;;;0.95;;
16401;SDS011;8310;44.626;11.176;2022-08-19T10:47:32;1.17;;;1.15;;
16401;SDS011;8310;44.626;11.176;2022-08-19T10:50:00;1.17;;;1.00;;
16401;SDS011;8310;44.626;11.176;2022-08-19T10:52:45;1.10;;;1.10;;
16401;SDS011;8310;44.626;11.176;2022-08-19T10:55:14;1.33;;;1.20;;
16401;SDS011;8310;44.626;11.176;2022-08-19T10:57:59;1.63;;;1.30;;
16401;SDS011;8310;44.626;11.176;2022-08-19T11:00:27;1.50;;;1.20;;
16401;SDS011;8310;44.626;11.176;2022-08-19T11:03:03;1.45;;;1.33;;
16401;SDS011;8310;44.626;11.176;2022-08-19T11:05:31;1.10;;;1.10;;
16401;SDS011;8310;44.626;11.176;2022-08-19T11:07:58;0.93;;;0.93;;
16401;SDS011;8310;44.626;11.176;2022-08-19T11:10:26;1.73;;;1.20;;
16401;SDS011;8310;44.626;11.176;2022-08-19T11:12:53;1.45;;;1.38;;
16401;SDS011;8310;44.626;11.176;2022-08-19T11:15:21;1.38;;;1.20;;
16401;SDS011;8310;44.626;11.176;2022-08-19T11:17:50;0.93;;;0.93;;
16401;SDS011;8310;44.626;11.176;2022-08-19T11:20:22;0.90;;;0.90;;
16401;SDS011;8310;44.626;11.176;2022-08-19T11:22:51;1.27;;;1.00;;
16401;SDS011;8310;44.626;11.176;2022-08-19T11:25:20;0.88;;;0.88;;
16401;SDS011;8310;44.626;11.176;2022-08-19T11:27:47;0.93;;;0.93;;
16401;SDS011;8310;44.626;11.176;2022-08-19T11:30:17;0.90;;;0.90;;
16401;SDS011;8310;44.626;11.176;2022-08-19T11:32:44;1.38;;;0.85;;
16401;SDS011;8310;44.626;11.176;2022-08-19T11:35:16;0.77;;;0.77;;
16401;SDS011;8310;44.626;11.176;2022-08-19T11:37:46;1.30;;;1.20;;
16401;SDS011;8310;44.626;11.176;2022-08-19T11:40:14;1.00;;;0.77;;
16401;SDS011;8310;44.626;11.176;2022-08-19T11:42:42;3.10;;;1.73;;
16401;SDS011;8310;44.626;11.176;2022-08-19T11:45:21;0.70;;;0.70;;
16401;SDS011;8310;44.626;11.176;2022-08-19T11:47:48;0.98;;;0.90;;
16401;SDS011;8310;44.626;11.176;2022-08-19T11:50:16;2.72;;;1.00;;
16401;SDS011;8310;44.626;11.176;2022-08-19T11:52:51;1.60;;;1.02;;
16401;SDS011;8310;44.626;11.176;2022-08-19T11:55:21;0.95;;;0.90;;
16401;SDS011;8310;44.626;11.176;2022-08-19T11:57:49;1.27;;;0.90;;
16401;SDS011;8310;44.626;11.176;2022-08-19T12:00:17;1.20;;;0.82;;
16401;SDS011;8310;44.626;11.176;2022-08-19T12:02:44;0.90;;;0.90;;
16401;SDS011;8310;44.626;11.176;2022-08-19T12:05:11;0.63;;;0.63;;
16401;SDS011;8310;44.626;11.176;2022-08-19T12:07:39;0.90;;;0.90;;
16401;SDS011;8310;44.626;11.176;2022-08-19T12:10:10;1.25;;;1.15;;
16401;SDS011;8310;44.626;11.176;2022-08-19T12:12:38;1.00;;;1.00;;
16401;SDS011;8310;44.626;11.176;2022-08-19T12:15:08;0.80;;;0.80;;
16401;SDS011;8310;44.626;11.176;2022-08-19T12:17:36;1.15;;;1.00;;
16401;SDS011;8310;44.626;11.176;2022-08-19T12:20:04;0.90;;;0.90;;
16401;SDS011;8310;44.626;11.176;2022-08-19T12:22:33;1.58;;;1.10;;
16401;SDS011;8310;44.626;11.176;2022-08-19T12:25:01;1.08;;;0.90;;
16401;SDS011;8310;44.626;11.176;2022-08-19T12:27:30;1.42;;;1.20;;
16401;SDS011;8310;44.626;11.176;2022-08-19T12:29:58;1.20;;;1.10;;
16401;SDS011;8310;44.626;11.176;2022-08-19T12:32:26;1.30;;;0.90;;
16401;SDS011;8310;44.626;11.176;2022-08-19T12:34:54;0.75;;;0.75;;
16401;SDS011;8310;44.626;11.176;2022-08-19T12:37:22;1.42;;;1.33;;
16401;SDS011;8310;44.626;11.176;2022-08-19T12:39:50;1.50;;;0.90;;
16401;SDS011;8310;44.626;11.176;2022-08-19T12:42:18;0.93;;;0.90;;
16401;SDS011;8310;44.626;11.176;2022-08-19T12:44:49;1.02;;;0.90;;
16401;SDS011;8310;44.626;11.176;2022-08-19T12:47:17;1.65;;;1.00;;
16401;SDS011;8310;44.626;11.176;2022-08-19T12:49:45;0.85;;;0.80;;
16401;SDS011;8310;44.626;11.176;2022-08-19T12:52:13;1.13;;;1.10;;
16401;SDS011;8310;44.626;11.176;2022-08-19T12:54:42;0.90;;;0.90;;
16401;SDS011;8310;44.626;11.176;2022-08-19T12:57:10;1.25;;;1.15;;
16401;SDS011;8310;44.626;11.176;2022-08-19T12:59:38;0.90;;;0.90;;
16401;SDS011;8310;44.626;11.176;2022-08-19T13:02:11;2.28;;;1.65;;
16401;SDS011;8310;44.626;11.176;2022-08-19T13:04:39;2.10;;;1.30;;
16401;SDS011;8310;44.626;11.176;2022-08-19T13:07:07;1.27;;;1.02;;
16401;SDS011;8310;44.626;11.176;2022-08-19T13:09:35;0.90;;;0.90;;
16401;SDS011;8310;44.626;11.176;2022-08-19T13:12:02;1.10;;;1.10;;
16401;SDS011;8310;44.626;11.176;2022-08-19T13:14:33;0.98;;;0.80;;
16401;SDS011;8310;44.626;11.176;2022-08-19T13:17:01;0.80;;;0.80;;
16401;SDS011;8310;44.626;11.176;2022-08-19T13:19:30;1.10;;;1.00;;
16401;SDS011;8310;44.626;11.176;2022-08-19T13:21:58;0.60;;;0.60;;
16401;SDS011;8310;44.626;11.176;2022-08-19T13:24:25;1.63;;;1.52;;
16401;SDS011;8310;44.626;11.176;2022-08-19T13:26:53;1.08;;;0.98;;
16401;SDS011;8310;44.626;11.176;2022-08-19T13:29:20;1.17;;;0.90;;
16401;SDS011;8310;44.626;11.176;2022-08-19T13:32:05;1.48;;;1.10;;
16401;SDS011;8310;44.626;11.176;2022-08-19T13:34:51;1.48;;;1.23;;
16401;SDS011;8310;44.626;11.176;2022-08-19T13:37:18;2.72;;;0.93;;
16401;SDS011;8310;44.626;11.176;2022-08-19T13:40:06;1.20;;;1.20;;
16401;SDS011;8310;44.626;11.176;2022-08-19T13:42:37;2.50;;;1.23;;
16401;SDS011;8310;44.626;11.176;2022-08-19T13:45:05;4.78;;;1.20;;
16401;SDS011;8310;44.626;11.176;2022-08-19T13:47:33;1.60;;;0.88;;
16401;SDS011;8310;44.626;11.176;2022-08-19T13:50:06;0.75;;;0.75;;
16401;SDS011;8310;44.626;11.176;2022-08-19T13:52:34;1.60;;;0.93;;
16401;SDS011;8310;44.626;11.176;2022-08-19T13:55:01;1.75;;;0.90;;
16401;SDS011;8310;44.626;11.176;2022-08-19T13:57:30;1.50;;;0.85;;
16401;SDS011;8310;44.626;11.176;2022-08-19T13:59:58;0.82;;;0.73;;
16401;SDS011;8310;44.626;11.176;2022-08-19T14:02:25;1.88;;;0.90;;
16401;SDS011;8310;44.626;11.176;2022-08-19T14:04:53;1.00;;;1.00;;
16401;SDS011;8310;44.626;11.176;2022-08-19T14:07:22;1.35;;;1.02;;
16401;SDS011;8310;44.626;11.176;2022-08-19T14:09:50;1.63;;;1.20;;
16401;SDS011;8310;44.626;11.176;2022-08-19T14:12:18;1.05;;;0.95;;
16401;SDS011;8310;44.626;11.176;2022-08-19T14:14:46;2.22;;;1.00;;
16401;SDS011;8310;44.626;11.176;2022-08-19T14:17:14;1.08;;;0.98;;
16401;SDS011;8310;44.626;11.176;2022-08-19T14:19:42;0.90;;;0.90;;
16401;SDS011;8310;44.626;11.176;2022-08-19T14:22:10;2.05;;;1.42;;
16401;SDS011;8310;44.626;11.176;2022-08-19T14:25:01;1.85;;;1.00;;
16401;SDS011;8310;44.626;11.176;2022-08-19T14:27:40;2.28;;;1.23;;
16401;SDS011;8310;44.626;11.176;2022-08-19T14:30:13;0.93;;;0.93;;
16401;SDS011;8310;44.626;11.176;2022-08-19T14:32:42;1.30;;;1.20;;
16401;SDS011;8310;44.626;11.176;2022-08-19T14:35:10;1.00;;;0.65;;
16401;SDS011;8310;44.626;11.176;2022-08-19T14:37:40;0.90;;;0.90;;
16401;SDS011;8310;44.626;11.176;2022-08-19T14:40:10;1.65;;;1.55;;
16401;SDS011;8310;44.626;11.176;2022-08-19T14:42:39;1.67;;;0.98;;
16401;SDS011;8310;44.626;11.176;2022-08-19T14:45:07;1.00;;;1.00;;
16401;SDS011;8310;44.626;11.176;2022-08-19T14:47:35;1.30;;;1.20;;
16401;SDS011;8310;44.626;11.176;2022-08-19T14:50:04;1.48;;;1.33;;
16401;SDS011;8310;44.626;11.176;2022-08-19T14:52:33;2.40;;;1.50;;
16401;SDS011;8310;44.626;11.176;2022-08-19T14:55:00;2.05;;;1.40;;
16401;SDS011;8310;44.626;11.176;2022-08-19T14:57:30;1.15;;;1.00;;
16401;SDS011;8310;44.626;11.176;2022-08-19T14:59:58;1.05;;;1.00;;
16401;SDS011;8310;44.626;11.176;2022-08-19T15:02:26;1.35;;;1.20;;
16401;SDS011;8310;44.626;11.176;2022-08-19T15:04:54;2.17;;;1.80;;
16401;SDS011;8310;44.626;11.176;2022-08-19T15:07:22;1.48;;;1.05;;
16401;SDS011;8310;44.626;11.176;2022-08-19T15:09:49;1.08;;;1.00;;
16401;SDS011;8310;44.626;11.176;2022-08-19T15:12:17;1.17;;;1.17;;
16401;SDS011;8310;44.626;11.176;2022-08-19T15:14:46;2.55;;;1.45;;